Time;durP1;ratioP1;P1;durP2;ratioP2;P2;SDS_P1;SDS_P2;PMS_P1;PMS_P2;Temp;Humidity;BMP_temperature;BMP_pressure;BME280_temperature;BME280_humidity;BME280_pressure;Samples;Min_cycle;Max_cycle;Signal;HPM_P1;HPM_P2
2023/02/25 00:01:54;;;;;;;5.35;1.33;;;;;;;18.81;38.29;100735.34;5124610;27;20035;-70
2023/02/25 00:04:20;;;;;;;4.93;1.30;;;;;;;18.78;38.16;100740.88;5104687;27;20046;-70
2023/02/25 00:06:45;;;;;;;4.90;1.40;;;;;;;18.76;38.16;100731.44;5124000;27;20027;-71
2023/02/25 00:09:11;;;;;;;5.03;1.50;;;;;;;18.76;38.24;100742.00;5123996;27;20027;-70
2023/02/25 00:11:37;;;;;;;4.22;1.25;;;;;;;18.76;38.02;100732.25;5104739;27;20031;-70
2023/02/25 00:14:02;;;;;;;7.85;1.98;;;;;;;18.68;37.87;100730.28;5123701;27;20062;-71
2023/02/25 00:16:28;;;;;;;6.07;1.52;;;;;;;18.73;37.96;100735.16;5123663;27;20047;-71
2023/02/25 00:18:55;;;;;;;5.82;1.45;;;;;;;18.72;37.56;100732.66;5123715;27;20519;-71
2023/02/25 00:21:20;;;;;;;6.55;1.63;;;;;;;18.69;37.83;100728.47;5122210;27;20054;-71
2023/02/25 00:23:47;;;;;;;6.05;1.50;;;;;;;18.70;37.66;100731.94;5122961;27;20036;-71
2023/02/25 00:26:14;;;;;;;4.15;1.20;;;;;;;18.70;37.82;100729.31;5122610;27;20080;-71
2023/02/25 00:28:40;;;;;;;6.05;1.55;;;;;;;18.66;37.82;100728.75;5123402;27;20045;-72
2023/02/25 00:31:18;;;;;;;4.38;1.25;;;;;;;18.65;37.51;100729.69;5123869;27;20438;-71
2023/02/25 00:33:44;;;;;;;6.05;1.30;;;;;;;18.65;37.55;100727.88;5123143;27;20042;-72
2023/02/25 00:36:12;;;;;;;5.88;1.13;;;;;;;18.63;37.67;100729.00;5123254;27;20034;-71
2023/02/25 00:38:38;;;;;;;4.05;1.20;;;;;;;18.62;37.48;100729.97;5122721;27;20150;-71
2023/02/25 00:41:11;;;;;;;4.72;1.63;;;;;;;18.59;37.38;100731.06;5123280;27;20134;-72
2023/02/25 00:43:38;;;;;;;5.47;1.50;;;;;;;18.60;37.50;100730.09;5123408;27;20122;-70
2023/02/25 00:46:04;;;;;;;4.85;1.10;;;;;;;18.58;37.39;100723.25;5122445;27;20031;-72
2023/02/25 00:48:30;;;;;;;4.63;1.20;;;;;;;18.54;37.27;100716.59;5123096;27;20050;-70
2023/02/25 00:50:55;;;;;;;4.55;1.00;;;;;;;18.55;37.38;100721.75;5123336;27;20134;-71
2023/02/25 00:53:20;;;;;;;8.38;1.60;;;;;;;18.53;37.61;100728.09;5122263;27;20070;-72
2023/02/25 00:55:45;;;;;;;4.93;1.40;;;;;;;18.54;37.39;100729.78;5123530;27;20037;-70
2023/02/25 00:58:11;;;;;;;4.93;1.73;;;;;;;18.54;37.46;100733.25;5122996;27;20079;-71
2023/02/25 01:00:36;;;;;;;5.38;1.42;;;;;;;18.54;37.53;100727.97;5122721;27;20109;-70
2023/02/25 01:03:01;;;;;;;4.15;1.10;;;;;;;18.52;37.42;100731.69;5122946;27;20383;-70
2023/02/25 01:05:27;;;;;;;4.45;1.23;;;;;;;18.52;37.60;100729.06;5121941;27;20066;-71
2023/02/25 01:07:52;;;;;;;3.60;1.05;;;;;;;18.50;37.37;100726.56;5103286;27;20122;-70
2023/02/25 01:10:17;;;;;;;5.25;1.23;;;;;;;18.51;37.29;100727.41;5123349;27;20756;-72
2023/02/25 01:12:43;;;;;;;4.70;1.73;;;;;;;18.47;37.39;100722.38;5122574;27;20039;-70
2023/02/25 01:15:09;;;;;;;3.33;1.08;;;;;;;18.48;37.53;100736.41;5122526;27;20042;-69
2023/02/25 01:17:34;;;;;;;5.68;1.40;;;;;;;18.47;37.25;100729.47;5121985;27;20051;-69
2023/02/25 01:19:59;;;;;;;3.97;1.25;;;;;;;18.48;37.40;100724.06;5122608;27;20120;-70
2023/02/25 01:22:25;;;;;;;3.33;1.10;;;;;;;18.45;37.07;100721.69;5121497;27;20054;-70
2023/02/25 01:24:54;;;;;;;5.20;1.20;;;;;;;18.46;37.26;100733.91;5122681;27;20043;-70
2023/02/25 01:27:19;;;;;;;3.30;0.90;;;;;;;18.46;37.34;100730.44;5122600;27;20501;-70
2023/02/25 01:29:44;;;;;;;5.40;1.40;;;;;;;18.44;37.11;100727.91;5122365;27;20026;-70
2023/02/25 01:32:12;;;;;;;6.53;1.50;;;;;;;18.40;37.00;100723.03;5122690;27;20035;-70
2023/02/25 01:34:38;;;;;;;3.97;1.23;;;;;;;18.43;37.34;100733.31;5121131;27;20034;-72
2023/02/25 01:37:04;;;;;;;4.00;1.00;;;;;;;18.41;36.97;100736.09;5122045;27;20039;-71
2023/02/25 01:39:31;;;;;;;5.72;1.42;;;;;;;18.40;37.12;100741.50;5122467;27;20035;-71
2023/02/25 01:41:57;;;;;;;5.47;1.35;;;;;;;18.34;37.27;100726.19;5122582;27;20037;-71
2023/02/25 01:44:36;;;;;;;5.50;1.30;;;;;;;18.37;37.11;100736.47;5122575;27;20034;-72
2023/02/25 01:47:03;;;;;;;5.32;1.20;;;;;;;18.40;37.13;100742.31;5122354;27;20027;-71
2023/02/25 01:49:33;;;;;;;3.47;1.10;;;;;;;18.35;37.15;100736.59;5121298;27;20149;-72
2023/02/25 01:52:07;;;;;;;4.85;1.17;;;;;;;18.37;37.13;100747.84;5122352;27;20045;-71
2023/02/25 01:54:34;;;;;;;4.97;1.65;;;;;;;18.39;37.16;100745.09;5121581;27;20479;-71
2023/02/25 01:56:59;;;;;;;5.15;1.40;;;;;;;18.35;37.21;100746.34;5121711;27;20471;-70
2023/02/25 01:59:27;;;;;;;6.72;1.10;;;;;;;18.32;37.07;100744.78;5122041;27;20034;-71
2023/02/25 02:01:53;;;;;;;5.70;1.50;;;;;;;18.33;37.12;100746.47;5121212;27;20159;-70
2023/02/25 02:04:20;;;;;;;5.32;1.38;;;;;;;18.31;36.99;100748.41;5122023;27;20039;-70
2023/02/25 02:06:48;;;;;;;6.00;1.30;;;;;;;18.33;37.06;100749.09;5121449;28;20031;-70
2023/02/25 02:09:17;;;;;;;4.28;1.25;;;;;;;18.33;37.07;100748.28;5103459;28;20065;-70
2023/02/25 02:11:42;;;;;;;7.20;1.42;;;;;;;18.29;36.82;100742.38;5121788;28;20028;-69
2023/02/25 02:14:13;;;;;;;3.92;1.30;;;;;;;18.29;36.89;100752.94;5102497;28;20038;-70
2023/02/25 02:17:07;;;;;;;6.07;1.38;;;;;;;18.29;36.89;100745.03;5120986;28;20062;-70
2023/02/25 02:19:58;;;;;;;5.18;1.60;;;;;;;18.29;37.01;100753.78;5121186;28;20044;-71
2023/02/25 02:22:35;;;;;;;4.32;1.02;;;;;;;18.27;36.94;100755.69;5113966;28;20127;-70
2023/02/25 02:25:29;;;;;;;5.68;1.40;;;;;;;18.27;36.55;100758.34;5121564;27;20035;-70
2023/02/25 02:28:16;;;;;;;4.53;1.17;;;;;;;18.21;37.04;100737.75;5120594;27;20394;-69
2023/02/25 02:31:14;;;;;;;5.68;1.10;;;;;;;18.25;36.69;100738.34;5121534;28;20114;-70
2023/02/25 02:33:53;;;;;;;6.93;1.50;;;;;;;18.25;36.70;100749.72;5098830;28;20490;-70
2023/02/25 02:36:48;;;;;;;5.80;1.38;;;;;;;18.20;36.79;100749.28;5121893;28;20071;-69
2023/02/25 02:39:31;;;;;;;5.72;1.25;;;;;;;18.19;36.58;100754.69;5121678;28;20549;-69
2023/02/25 02:42:20;;;;;;;6.13;1.23;;;;;;;18.21;36.83;100755.38;5120883;28;20118;-69
2023/02/25 02:45:03;;;;;;;5.35;1.35;;;;;;;18.22;36.67;100754.44;5102717;28;20035;-71
2023/02/25 02:47:57;;;;;;;6.60;1.50;;;;;;;18.20;36.55;100751.91;5122895;27;20112;-70
2023/02/25 02:50:34;;;;;;;5.22;1.20;;;;;;;18.18;36.63;100745.09;5125631;27;20024;-71
2023/02/25 02:53:07;;;;;;;4.38;1.08;;;;;;;18.18;36.65;100761.75;5125140;27;20039;-71
2023/02/25 02:55:38;;;;;;;5.38;1.20;;;;;;;18.16;36.56;100757.56;5123802;27;20042;-70
2023/02/25 02:58:15;;;;;;;4.63;1.23;;;;;;;18.14;36.40;100757.69;5125352;27;20442;-70
2023/02/25 03:00:44;;;;;;;5.65;1.55;;;;;;;18.15;36.42;100767.28;5124968;27;20027;-70
2023/02/25 03:03:15;;;;;;;5.00;1.20;;;;;;;18.13;36.56;100767.41;5125015;27;20042;-69
2023/02/25 03:05:43;;;;;;;5.75;1.38;;;;;;;18.12;36.36;100763.09;5124770;27;20118;-70
2023/02/25 03:08:15;;;;;;;6.13;1.15;;;;;;;18.13;36.64;100763.94;5124118;27;20117;-70
2023/02/25 03:10:41;;;;;;;4.20;1.13;;;;;;;18.10;36.73;100759.75;5125065;27;20035;-69
2023/02/25 03:13:07;;;;;;;5.13;1.10;;;;;;;18.12;36.50;100767.53;5106605;27;20414;-71
2023/02/25 03:15:33;;;;;;;8.18;1.27;;;;;;;18.11;36.47;100761.41;5124195;27;20092;-71
2023/02/25 03:18:06;;;;;;;4.05;1.38;;;;;;;18.11;36.56;100760.59;5124795;27;20074;-71
2023/02/25 03:20:39;;;;;;;4.07;1.30;;;;;;;18.08;36.40;100758.19;5124300;27;20387;-71
2023/02/25 03:23:10;;;;;;;5.15;1.17;;;;;;;18.07;36.44;100761.78;5124985;27;20044;-71
2023/02/25 03:25:49;;;;;;;4.18;1.00;;;;;;;18.07;36.23;100757.38;5124523;27;20031;-71
2023/02/25 03:28:24;;;;;;;5.55;1.10;;;;;;;18.08;36.46;100756.38;5124861;27;20092;-71
2023/02/25 03:31:14;;;;;;;5.47;1.13;;;;;;;18.06;36.50;100757.50;5124883;27;20043;-71
2023/02/25 03:33:48;;;;;;;5.00;1.25;;;;;;;18.06;36.65;100755.69;5105802;27;20047;-71
2023/02/25 03:36:29;;;;;;;6.97;1.40;;;;;;;18.07;36.47;100761.78;5124615;27;20062;-71
2023/02/25 03:38:59;;;;;;;4.85;1.45;;;;;;;18.06;36.46;100763.59;5124085;27;20027;-71
2023/02/25 03:41:29;;;;;;;5.88;1.30;;;;;;;18.05;36.53;100769.00;5124351;27;20110;-71
2023/02/25 03:43:57;;;;;;;5.65;1.67;;;;;;;17.97;36.33;100759.06;5124324;27;20989;-71
2023/02/25 03:46:25;;;;;;;5.57;1.73;;;;;;;18.03;36.58;100760.38;5123946;27;20123;-70
2023/02/25 03:48:53;;;;;;;4.82;1.23;;;;;;;18.02;36.50;100766.63;5124126;27;20032;-70
2023/02/25 03:51:26;;;;;;;5.88;1.50;;;;;;;18.02;36.41;100770.06;5124248;27;20034;-70
2023/02/25 03:53:51;;;;;;;5.80;1.60;;;;;;;18.02;36.24;100771.88;5105765;27;20035;-70
2023/02/25 03:56:16;;;;;;;5.75;1.50;;;;;;;18.03;37.21;100776.22;5124038;27;20591;-71
2023/02/25 03:58:42;;;;;;;3.78;1.00;;;;;;;18.04;38.38;100775.22;5124075;27;20038;-70
2023/02/25 04:01:16;;;;;;;5.85;1.27;;;;;;;18.02;38.82;100771.88;5124135;27;20030;-72
2023/02/25 04:03:41;;;;;;;5.55;1.38;;;;;;;17.97;38.83;100767.00;5124144;27;20065;-71
2023/02/25 04:06:06;;;;;;;5.97;1.38;;;;;;;18.00;39.09;100781.72;5123465;27;20364;-70
2023/02/25 04:08:32;;;;;;;4.40;1.30;;;;;;;17.98;39.39;100770.47;5123750;27;20035;-71
2023/02/25 04:10:57;;;;;;;6.00;1.42;;;;;;;17.95;39.40;100774.19;5123552;27;20031;-70
2023/02/25 04:13:22;;;;;;;3.63;1.25;;;;;;;17.95;39.63;100779.47;5124062;27;20066;-69
2023/02/25 04:15:48;;;;;;;6.63;1.20;;;;;;;17.91;39.78;100772.75;5123479;27;20047;-69
2023/02/25 04:18:14;;;;;;;7.47;1.50;;;;;;;17.92;39.87;100774.44;5105275;27;20096;-69
2023/02/25 04:20:39;;;;;;;5.55;1.20;;;;;;;17.90;40.13;100773.75;5123791;27;20046;-70
2023/02/25 04:23:06;;;;;;;5.50;1.50;;;;;;;17.91;40.08;100778.03;5123481;27;21092;-71
2023/02/25 04:25:32;;;;;;;5.60;1.40;;;;;;;17.92;40.29;100791.09;5123473;27;20081;-70
2023/02/25 04:27:57;;;;;;;5.93;1.45;;;;;;;17.88;40.34;100778.28;5123091;27;20114;-69
2023/02/25 04:30:23;;;;;;;5.00;1.20;;;;;;;17.89;40.41;100782.59;5123637;27;20114;-70
2023/02/25 04:32:48;;;;;;;6.70;1.20;;;;;;;17.88;40.25;100780.91;5123452;27;20121;-71
2023/02/25 04:35:13;;;;;;;4.05;1.30;;;;;;;17.88;40.60;100783.56;5123441;27;20031;-69
2023/02/25 04:37:40;;;;;;;6.18;1.10;;;;;;;17.85;40.77;100781.13;5123109;27;20055;-70
2023/02/25 04:40:12;;;;;;;4.72;1.10;;;;;;;17.83;40.61;100776.00;5123159;27;20037;-71
2023/02/25 04:42:38;;;;;;;4.25;1.10;;;;;;;17.86;40.70;100791.53;5123113;27;20027;-71
2023/02/25 04:45:05;;;;;;;6.60;1.63;;;;;;;17.84;40.83;100776.84;5123289;27;20498;-71
2023/02/25 04:47:31;;;;;;;4.07;1.05;;;;;;;17.77;40.86;100774.69;5123078;27;20067;-70
2023/02/25 04:49:56;;;;;;;6.00;1.40;;;;;;;17.86;40.87;100788.09;5123046;27;20107;-70
2023/02/25 04:52:22;;;;;;;5.20;1.25;;;;;;;17.85;41.17;100796.94;5123357;27;20031;-70
2023/02/25 04:54:47;;;;;;;6.68;1.40;;;;;;;17.80;40.98;100794.72;5122849;27;20034;-70
2023/02/25 04:57:13;;;;;;;6.25;1.30;;;;;;;17.83;41.10;100802.38;5122947;27;20491;-70
2023/02/25 04:59:39;;;;;;;6.22;1.27;;;;;;;17.82;41.29;100808.59;5104194;27;20035;-69
2023/02/25 05:02:06;;;;;;;5.05;1.23;;;;;;;17.81;41.04;100803.44;5123247;27;20039;-70
2023/02/25 05:04:32;;;;;;;6.32;1.30;;;;;;;17.81;41.27;100803.44;5122550;27;20110;-71
2023/02/25 05:06:57;;;;;;;4.90;1.30;;;;;;;17.83;41.28;100796.25;5123116;27;20487;-70
2023/02/25 05:09:22;;;;;;;5.93;1.40;;;;;;;17.79;41.06;100793.03;5122371;27;20031;-71
2023/02/25 05:11:48;;;;;;;5.63;1.58;;;;;;;17.78;41.38;100791.34;5103064;27;20069;-71
2023/02/25 05:14:13;;;;;;;5.18;1.38;;;;;;;17.80;41.53;100794.72;5122424;27;20059;-70
2023/02/25 05:16:38;;;;;;;4.85;1.30;;;;;;;17.80;41.37;100793.84;5122198;27;20047;-70
2023/02/25 05:19:04;;;;;;;5.38;1.60;;;;;;;17.75;41.65;100787.16;5122720;27;20054;-70
2023/02/25 05:21:29;;;;;;;5.60;1.23;;;;;;;17.79;41.40;100793.03;5122498;27;20121;-70
2023/02/25 05:23:54;;;;;;;5.32;1.13;;;;;;;17.74;41.54;100793.38;5103365;27;20564;-70
2023/02/25 05:26:22;;;;;;;4.70;1.25;;;;;;;17.77;41.55;100802.84;5126196;27;20054;-70
2023/02/25 05:28:50;;;;;;;5.20;1.30;;;;;;;17.78;41.83;100801.88;5122880;27;20069;-70
2023/02/25 05:31:15;;;;;;;3.25;0.95;;;;;;;17.74;41.82;100789.94;5122295;27;20555;-70
2023/02/25 05:33:41;;;;;;;4.43;0.98;;;;;;;17.78;41.68;100793.97;5122552;27;20027;-70
2023/02/25 05:36:08;;;;;;;5.20;1.15;;;;;;;17.74;41.83;100789.94;5122477;27;20023;-71
2023/02/25 05:38:33;;;;;;;5.70;1.33;;;;;;;17.73;42.00;100796.97;5121974;27;20079;-70
2023/02/25 05:41:00;;;;;;;5.40;1.08;;;;;;;17.72;42.04;100791.81;5122435;27;20035;-70
2023/02/25 05:43:26;;;;;;;5.68;1.10;;;;;;;17.74;41.66;100797.84;5122300;27;20045;-71
2023/02/25 05:45:55;;;;;;;4.95;1.25;;;;;;;17.63;41.54;100779.41;5121844;27;20031;-71
2023/02/25 05:48:21;;;;;;;5.20;1.20;;;;;;;17.74;41.39;100800.47;5122322;27;20135;-68
2023/02/25 05:50:49;;;;;;;4.82;1.30;;;;;;;17.75;41.52;100797.72;5122582;27;20046;-70
2023/02/25 05:53:15;;;;;;;4.72;1.13;;;;;;;17.77;41.56;100800.22;5121579;27;20027;-69
2023/02/25 05:55:42;;;;;;;5.88;1.30;;;;;;;17.82;41.62;100792.78;5122907;27;20121;-69
2023/02/25 05:58:07;;;;;;;5.72;1.10;;;;;;;17.86;41.63;100791.53;5124772;27;21013;-70
2023/02/25 06:00:32;;;;;;;4.97;1.23;;;;;;;17.89;41.49;100798.41;5122437;27;20027;-71
2023/02/25 06:02:58;;;;;;;4.63;1.50;;;;;;;17.97;41.37;100808.34;5122196;27;20110;-70
2023/02/25 06:05:23;;;;;;;4.18;1.17;;;;;;;17.99;41.37;100816.97;5102925;28;20063;-70
2023/02/25 06:07:48;;;;;;;5.13;1.23;;;;;;;18.00;41.56;100814.19;5121937;28;20027;-70
2023/02/25 06:10:14;;;;;;;4.72;0.90;;;;;;;18.07;41.75;100830.34;5121802;27;20431;-71
2023/02/25 06:12:39;;;;;;;3.75;1.00;;;;;;;18.06;41.29;100828.69;5122590;28;20076;-72
2023/02/25 06:15:05;;;;;;;5.20;1.20;;;;;;;18.08;41.33;100818.84;5121995;27;20085;-72
2023/02/25 06:17:30;;;;;;;4.60;1.15;;;;;;;18.10;41.32;100823.06;5121380;28;20051;-70
2023/02/25 06:19:56;;;;;;;4.95;1.00;;;;;;;18.15;41.34;100827.09;5102973;28;20080;-71
2023/02/25 06:22:22;;;;;;;3.90;1.10;;;;;;;18.16;41.47;100826.97;5123345;27;20106;-71
2023/02/25 06:24:47;;;;;;;4.47;1.20;;;;;;;18.19;41.47;100828.53;5125450;27;20035;-70
2023/02/25 06:27:13;;;;;;;4.35;1.00;;;;;;;18.19;41.32;100823.25;5125613;27;20759;-70
2023/02/25 06:29:40;;;;;;;4.70;1.00;;;;;;;18.16;41.51;100824.34;5107346;27;20031;-71
2023/02/25 06:32:12;;;;;;;5.20;1.10;;;;;;;18.21;41.48;100826.59;5125851;27;20065;-71
2023/02/25 06:34:38;;;;;;;5.18;1.20;;;;;;;18.22;41.53;100828.28;5125785;27;20491;-71
2023/02/25 06:37:04;;;;;;;4.28;1.00;;;;;;;18.23;41.37;100830.81;5125734;27;20087;-72
2023/02/25 06:39:29;;;;;;;4.20;0.93;;;;;;;18.25;41.49;100835.97;5125505;27;20060;-69
2023/02/25 06:41:54;;;;;;;3.33;1.00;;;;;;;18.25;41.35;100834.16;5125802;27;20114;-70
2023/02/25 06:44:20;;;;;;;5.68;1.25;;;;;;;18.28;41.09;100835.72;5125639;27;20035;-70
2023/02/25 06:46:45;;;;;;;3.88;1.20;;;;;;;18.29;41.49;100846.13;5105899;27;20087;-70
2023/02/25 06:49:11;;;;;;;4.03;1.35;;;;;;;18.27;41.24;100840.13;5125385;27;20067;-69
2023/02/25 06:51:37;;;;;;;4.50;0.93;;;;;;;18.31;41.54;100846.00;5125378;27;20059;-70
2023/02/25 06:54:03;;;;;;;4.85;1.13;;;;;;;18.34;41.54;100844.91;5125169;27;20122;-68
2023/02/25 06:56:29;;;;;;;4.30;1.00;;;;;;;18.32;41.43;100842.38;5125074;27;20363;-68
2023/02/25 06:58:57;;;;;;;4.93;0.90;;;;;;;18.33;41.64;100835.34;5125368;27;20038;-71
2023/02/25 07:01:22;;;;;;;5.40;1.02;;;;;;;18.36;41.25;100854.38;5123814;27;20023;-72
2023/02/25 07:03:48;;;;;;;4.55;1.00;;;;;;;18.34;41.41;100844.91;5125413;27;20042;-72
2023/02/25 07:06:14;;;;;;;4.60;1.10;;;;;;;18.37;41.43;100852.56;5124723;27;20027;-68
2023/02/25 07:08:40;;;;;;;4.20;1.17;;;;;;;18.36;41.32;100853.50;5124843;27;20027;-69
2023/02/25 07:11:17;;;;;;;4.93;0.90;;;;;;;18.37;41.50;100863.13;5106610;27;20031;-69
2023/02/25 07:13:45;;;;;;;5.50;0.98;;;;;;;18.35;41.33;100857.13;5125086;27;20027;-71
2023/02/25 07:16:12;;;;;;;5.18;1.17;;;;;;;18.34;41.23;100861.59;5123931;27;20043;-70
2023/02/25 07:18:37;;;;;;;5.13;1.30;;;;;;;18.33;41.68;100867.00;5123623;28;20045;-70
2023/02/25 07:21:03;;;;;;;6.95;1.33;;;;;;;18.35;41.44;100871.16;5123429;27;20035;-69
2023/02/25 07:23:28;;;;;;;7.10;1.27;;;;;;;18.31;41.71;100861.84;5123367;28;20868;-70
2023/02/25 07:25:53;;;;;;;5.07;0.93;;;;;;;18.34;41.74;100873.91;5123336;28;20035;-72
2023/02/25 07:28:19;;;;;;;4.07;1.33;;;;;;;18.36;41.80;100882.53;5123756;28;20027;-71
2023/02/25 07:30:44;;;;;;;4.30;1.10;;;;;;;18.37;41.73;100886.88;5122584;28;20483;-69
2023/02/25 07:33:10;;;;;;;4.18;1.02;;;;;;;18.34;41.34;100882.69;5122946;27;20211;-71
2023/02/25 07:35:35;;;;;;;4.70;0.98;;;;;;;18.37;41.51;100885.06;5123390;27;20031;-70
2023/02/25 07:38:00;;;;;;;4.55;0.98;;;;;;;18.36;41.60;100887.81;5124847;28;20114;-72
2023/02/25 07:40:25;;;;;;;3.90;1.20;;;;;;;18.34;41.81;100887.97;5125421;28;20502;-71
2023/02/25 07:42:51;;;;;;;5.13;1.10;;;;;;;18.36;42.14;100890.47;5123450;27;20413;-72
2023/02/25 07:45:16;;;;;;;5.68;1.35;;;;;;;18.36;42.05;100891.31;5123150;27;20035;-70
2023/02/25 07:47:42;;;;;;;6.10;1.20;;;;;;;18.40;42.56;100899.81;5123428;28;20039;-71
2023/02/25 07:50:09;;;;;;;6.13;1.42;;;;;;;18.39;42.56;100901.63;5123045;27;20038;-71
2023/02/25 07:52:35;;;;;;;4.45;1.00;;;;;;;18.42;42.63;100911.06;5104335;27;20192;-69
2023/02/25 07:55:01;;;;;;;6.22;1.33;;;;;;;18.40;42.80;100903.28;5123211;28;20556;-69
2023/02/25 07:57:27;;;;;;;5.20;1.48;;;;;;;18.43;42.67;100903.03;5123444;27;20049;-72
2023/02/25 07:59:53;;;;;;;3.72;1.20;;;;;;;18.43;42.80;100910.13;5123019;28;20035;-72
2023/02/25 08:02:18;;;;;;;6.40;1.20;;;;;;;18.46;42.82;100905.41;5123225;27;20031;-70
2023/02/25 08:04:43;;;;;;;4.32;1.00;;;;;;;18.47;43.09;100906.28;5123044;28;20035;-72
2023/02/25 08:07:09;;;;;;;8.15;1.30;;;;;;;18.46;42.96;100910.69;5123048;27;20038;-72
2023/02/25 08:09:34;;;;;;;5.13;1.13;;;;;;;18.44;43.25;100907.34;5122991;28;20034;-71
2023/02/25 08:11:59;;;;;;;5.10;1.00;;;;;;;18.48;43.09;100907.94;5123361;27;20034;-69
2023/02/25 08:14:24;;;;;;;7.40;1.33;;;;;;;18.52;43.18;100925.22;5122783;28;20059;-71
2023/02/25 08:16:54;;;;;;;6.10;1.83;;;;;;;18.50;43.07;100913.94;5085889;27;1061767;-71
2023/02/25 08:19:19;;;;;;;6.78;1.60;;;;;;;18.46;43.47;100907.22;5124279;27;20039;-70
2023/02/25 08:21:45;;;;;;;4.45;1.17;;;;;;;18.56;43.42;100917.88;5123751;27;20034;-69
2023/02/25 08:24:10;;;;;;;4.22;1.25;;;;;;;18.51;43.64;100910.31;5124180;27;20886;-71
2023/02/25 08:26:35;;;;;;;6.55;1.55;;;;;;;18.58;43.46;100930.00;5123451;27;20023;-70
2023/02/25 08:29:01;;;;;;;5.68;1.05;;;;;;;18.58;43.60;100935.28;5123971;27;20031;-70
2023/02/25 08:31:26;;;;;;;6.03;1.30;;;;;;;18.59;43.53;100928.19;5123700;27;20035;-69
2023/02/25 08:33:52;;;;;;;5.53;0.98;;;;;;;18.59;43.53;100922.91;5124089;27;20035;-69
2023/02/25 08:36:22;;;;;;;4.93;1.30;;;;;;;18.62;43.64;100938.47;5123557;27;20031;-71
2023/02/25 08:38:49;;;;;;;8.27;1.27;;;;;;;18.59;43.73;100934.28;5124073;27;20031;-70
2023/02/25 08:41:14;;;;;;;4.47;1.10;;;;;;;18.61;43.78;100928.88;5123474;27;20391;-70
2023/02/25 08:43:40;;;;;;;6.93;1.65;;;;;;;18.61;43.56;100928.88;5123811;27;20729;-68
2023/02/25 08:46:07;;;;;;;6.40;1.58;;;;;;;18.62;43.51;100926.13;5120929;27;20031;-69
2023/02/25 08:48:33;;;;;;;9.60;1.73;;;;;;;18.64;43.61;100926.00;5123462;27;20038;-69
2023/02/25 08:51:07;;;;;;;8.13;1.58;;;;;;;18.64;43.76;100924.22;5123060;27;20027;-68
2023/02/25 08:53:34;;;;;;;6.57;1.30;;;;;;;18.66;43.84;100924.09;5123129;27;20031;-72
2023/02/25 08:56:01;;;;;;;5.15;1.23;;;;;;;18.65;43.65;100941.69;5122878;27;20028;-68
2023/02/25 08:58:27;;;;;;;6.63;1.17;;;;;;;18.66;43.85;100947.84;5123359;27;20067;-70
2023/02/25 09:00:52;;;;;;;8.23;1.50;;;;;;;18.68;43.82;100945.91;5123289;27;20063;-70
2023/02/25 09:03:18;;;;;;;4.45;1.15;;;;;;;18.68;43.68;100948.53;5122651;27;20088;-71
2023/02/25 09:05:50;;;;;;;5.47;1.20;;;;;;;18.72;43.81;100949.94;5121429;27;20067;-71
2023/02/25 09:08:15;;;;;;;6.20;1.50;;;;;;;18.70;43.74;100943.13;5121916;27;20035;-70
2023/02/25 09:10:40;;;;;;;6.37;1.57;;;;;;;18.72;44.04;100947.31;5122492;27;20062;-69
2023/02/25 09:13:05;;;;;;;5.57;1.37;;;;;;;18.75;44.08;100947.06;5122716;27;20266;-68
2023/02/25 09:15:31;;;;;;;8.00;1.35;;;;;;;18.75;44.38;100949.69;5121586;27;20350;-68
2023/02/25 09:17:56;;;;;;;5.50;1.70;;;;;;;18.80;44.65;100962.53;5121979;27;20852;-68
2023/02/25 09:20:24;;;;;;;6.63;1.58;;;;;;;18.83;44.67;100954.34;5120407;27;20038;-68
2023/02/25 09:22:49;;;;;;;5.43;1.30;;;;;;;18.81;44.35;100951.84;5121959;27;20084;-68
2023/02/25 09:25:15;;;;;;;5.75;1.33;;;;;;;18.84;43.75;100956.91;5121536;27;20031;-68
2023/02/25 09:27:40;;;;;;;6.05;1.40;;;;;;;18.88;43.83;100965.41;5121664;27;21012;-68
2023/02/25 09:30:06;;;;;;;6.32;1.30;;;;;;;18.86;43.35;100964.69;5121694;27;20042;-68
2023/02/25 09:32:31;;;;;;;4.95;1.17;;;;;;;18.89;43.15;100971.53;5122123;27;20494;-66
2023/02/25 09:34:57;;;;;;;5.53;1.40;;;;;;;18.93;42.54;100981.72;5102914;27;20039;-66
2023/02/25 09:37:22;;;;;;;8.90;1.38;;;;;;;18.95;42.61;100984.25;5121272;27;20255;-69
2023/02/25 09:39:47;;;;;;;6.57;1.85;;;;;;;18.97;42.36;100982.31;5122209;27;20031;-68
2023/02/25 09:42:19;;;;;;;5.43;1.50;;;;;;;18.98;42.00;100979.53;5121444;27;20494;-67
2023/02/25 09:44:48;;;;;;;6.78;1.75;;;;;;;19.01;42.28;100974.00;5121245;27;20191;-67
2023/02/25 09:47:25;;;;;;;6.45;1.25;;;;;;;19.08;42.34;100995.47;5121653;27;20490;-67
2023/02/25 09:49:54;;;;;;;6.72;1.48;;;;;;;19.03;42.00;100969.41;5121897;27;20125;-66
2023/02/25 09:52:27;;;;;;;7.93;1.50;;;;;;;19.11;41.72;100979.34;5122250;27;20048;-67
2023/02/25 09:55:05;;;;;;;6.57;1.55;;;;;;;19.10;41.65;100985.59;5122217;27;20087;-66
2023/02/25 09:57:36;;;;;;;6.60;1.55;;;;;;;19.07;41.88;100996.41;5103513;27;20070;-66
2023/02/25 10:00:11;;;;;;;6.65;1.38;;;;;;;19.08;41.76;101005.19;5103677;27;20877;-66
2023/02/25 10:02:36;;;;;;;6.75;1.30;;;;;;;19.07;41.77;101006.16;5122377;27;20028;-66
2023/02/25 10:05:32;;;;;;;5.03;1.23;;;;;;;19.02;41.90;101007.34;5122307;27;20076;-67
2023/02/25 10:08:22;;;;;;;6.05;1.40;;;;;;;18.99;41.79;101005.00;5121989;27;20038;-66
2023/02/25 10:11:04;;;;;;;7.53;1.55;;;;;;;18.98;42.01;101013.88;5122409;27;20050;-65
2023/02/25 10:14:14;;;;;;;5.93;1.27;;;;;;;18.97;41.92;101014.81;5122291;28;20031;-66
2023/02/25 10:17:18;;;;;;;5.95;1.23;;;;;;;19.02;41.41;101011.81;5079907;28;20075;-67
2023/02/25 10:20:17;;;;;;;6.00;1.38;;;;;;;19.02;41.42;101017.09;5057639;28;20523;-69
2023/02/25 10:23:07;;;;;;;5.45;1.40;;;;;;;19.02;41.01;101019.72;5121527;28;20041;-68
2023/02/25 10:25:38;;;;;;;4.88;1.27;;;;;;;19.00;41.31;101029.59;5120674;28;20475;-68
2023/02/25 10:28:10;;;;;;;4.03;1.10;;;;;;;19.02;41.59;101027.66;5121171;27;20038;-68
2023/02/25 10:30:58;;;;;;;6.47;1.25;;;;;;;19.03;41.40;101029.34;5121403;27;20038;-67
2023/02/25 10:33:26;;;;;;;4.13;1.30;;;;;;;19.02;41.36;101038.22;5121312;27;20433;-68
2023/02/25 10:36:01;;;;;;;6.35;1.40;;;;;;;19.00;41.37;101029.59;5121676;28;20416;-67
2023/02/25 10:38:26;;;;;;;5.57;1.38;;;;;;;18.99;41.56;101035.84;5122194;28;20108;-66
2023/02/25 10:40:54;;;;;;;6.55;1.42;;;;;;;19.03;41.33;101045.19;5118833;28;20459;-68
2023/02/25 10:43:22;;;;;;;5.40;1.33;;;;;;;19.05;41.26;101037.97;5120813;28;20054;-68
2023/02/25 10:46:00;;;;;;;7.35;1.40;;;;;;;19.01;41.24;101033.91;5120435;27;20047;-68
2023/02/25 10:48:26;;;;;;;8.25;1.50;;;;;;;19.02;41.23;101043.50;5120432;28;20055;-68
2023/02/25 10:51:04;;;;;;;4.53;1.40;;;;;;;19.06;41.29;101046.72;5121463;27;20042;-66
2023/02/25 10:53:30;;;;;;;5.53;1.20;;;;;;;19.09;41.13;101054.41;5121873;27;20120;-67
2023/02/25 10:55:57;;;;;;;3.95;0.98;;;;;;;19.07;41.23;101051.06;5121187;27;20175;-68
2023/02/25 10:58:57;;;;;;;3.92;1.33;;;;;;;19.02;41.17;101048.78;5121383;28;20475;-67
2023/02/25 11:01:23;;;;;;;6.38;1.20;;;;;;;19.06;41.01;101054.66;5121304;28;20108;-66
2023/02/25 11:04:04;;;;;;;6.30;1.23;;;;;;;19.03;40.75;101050.47;5119422;28;20069;-68
2023/02/25 11:06:34;;;;;;;7.45;1.45;;;;;;;19.06;40.79;101052.00;5101661;28;20031;-69
2023/02/25 11:09:01;;;;;;;5.18;1.30;;;;;;;19.04;40.86;101049.50;5121912;27;20023;-69
2023/02/25 11:11:27;;;;;;;4.65;1.55;;;;;;;19.07;40.68;101048.41;5124757;27;20031;-69
2023/02/25 11:14:14;;;;;;;5.93;1.00;;;;;;;19.05;40.89;101056.47;5125193;27;20038;-69
2023/02/25 11:16:43;;;;;;;4.07;1.10;;;;;;;19.03;40.97;101045.19;5124422;27;20515;-69
2023/02/25 11:19:23;;;;;;;7.63;1.30;;;;;;;19.01;41.07;101052.41;5106462;27;20046;-67
2023/02/25 11:21:50;;;;;;;6.53;1.45;;;;;;;19.02;41.11;101059.34;5124856;27;20035;-71
2023/02/25 11:24:21;;;;;;;5.38;1.27;;;;;;;19.03;40.72;101061.03;5121648;27;20027;-68
2023/02/25 11:26:50;;;;;;;4.28;1.13;;;;;;;19.01;40.48;101053.25;5123906;27;20042;-68
2023/02/25 11:29:20;;;;;;;5.72;1.20;;;;;;;18.99;40.56;101047.25;5123909;27;20073;-69
2023/02/25 11:32:03;;;;;;;3.50;0.90;;;;;;;18.93;40.86;101050.38;5105482;27;21342;-69
2023/02/25 11:34:30;;;;;;;8.38;1.60;;;;;;;18.96;40.99;101052.78;5123911;27;20034;-68